createdAt,value
2022-11-26T00:00:20.780Z,7.10
2022-11-26T00:02:48.512Z,7.10
2022-11-26T00:05:16.430Z,7.00
2022-11-26T00:07:47.859Z,7.00
2022-11-26T00:10:20.946Z,7.10
2022-11-26T00:12:48.571Z,7.00
2022-11-26T00:15:22.231Z,7.00
2022-11-26T00:17:50.146Z,7.00
2022-11-26T00:20:18.231Z,7.00
2022-11-26T00:22:49.877Z,7.00
2022-11-26T00:25:22.196Z,7.00
2022-11-26T00:27:50.105Z,7.10
2022-11-26T00:30:17.566Z,7.10
2022-11-26T00:32:44.930Z,7.10
2022-11-26T00:35:12.638Z,7.10
2022-11-26T00:37:45.230Z,7.10
2022-11-26T00:40:18.773Z,7.10
2022-11-26T00:42:46.214Z,7.10
2022-11-26T00:45:21.472Z,7.10
2022-11-26T00:47:49.582Z,7.00
2022-11-26T00:50:18.609Z,7.00
2022-11-26T00:52:46.949Z,6.90
2022-11-26T00:55:17.649Z,6.90
2022-11-26T00:57:45.190Z,6.90
2022-11-26T01:00:20.676Z,6.80
2022-11-26T01:02:48.073Z,6.90
2022-11-26T01:05:15.701Z,6.80
2022-11-26T01:07:43.665Z,6.80
2022-11-26T01:10:23.013Z,6.80
2022-11-26T01:12:50.755Z,6.80
2022-11-26T01:15:19.739Z,6.80
2022-11-26T01:17:47.387Z,6.80
2022-11-26T01:20:25.188Z,6.80
2022-11-26T01:22:54.076Z,6.90
2022-11-26T01:25:22.025Z,6.90
2022-11-26T01:27:49.522Z,7.00
2022-11-26T01:30:22.276Z,7.00
2022-11-26T01:32:50.258Z,7.00
2022-11-26T01:35:18.869Z,6.90
2022-11-26T01:37:46.679Z,6.90
2022-11-26T01:40:34.434Z,6.90
2022-11-26T01:43:13.171Z,6.80
2022-11-26T01:45:40.644Z,6.80
2022-11-26T01:48:28.477Z,6.80
2022-11-26T01:51:03.997Z,6.80
2022-11-26T01:53:41.676Z,6.80
2022-11-26T01:56:16.252Z,6.80
2022-11-26T01:58:46.401Z,6.70
2022-11-26T02:01:14.089Z,6.70
2022-11-26T02:03:48.443Z,6.70
2022-11-26T02:06:18.807Z,6.70
2022-11-26T02:08:46.536Z,6.70
2022-11-26T02:11:15.606Z,6.70
2022-11-26T02:13:43.734Z,6.70
2022-11-26T02:16:14.587Z,6.70
2022-11-26T02:18:44.983Z,6.70
2022-11-26T02:21:20.998Z,6.70
2022-11-26T02:24:05.014Z,6.70
2022-11-26T02:26:41.567Z,6.60
2022-11-26T02:29:15.046Z,6.70
2022-11-26T02:31:51.423Z,6.60
2022-11-26T02:34:18.784Z,6.60
2022-11-26T02:36:46.129Z,6.60
2022-11-26T02:39:18.345Z,6.60
2022-11-26T02:41:47.162Z,6.60
2022-11-26T02:44:16.098Z,6.60
2022-11-26T02:46:45.874Z,6.60
2022-11-26T02:49:14.470Z,6.50
2022-11-26T02:51:42.384Z,6.50
2022-11-26T02:54:10.302Z,6.40
2022-11-26T02:56:37.994Z,6.40
2022-11-26T02:59:05.749Z,6.40
2022-11-26T03:01:37.267Z,6.40
2022-11-26T03:04:11.567Z,6.30
2022-11-26T03:06:39.982Z,6.30
2022-11-26T03:09:07.460Z,6.30
2022-11-26T03:11:35.069Z,6.40
2022-11-26T03:14:02.482Z,6.40
2022-11-26T03:16:30.397Z,6.40
2022-11-26T03:18:57.750Z,6.40
2022-11-26T03:21:25.147Z,6.50
2022-11-26T03:23:52.578Z,6.50
2022-11-26T03:26:19.905Z,6.40
2022-11-26T03:28:47.558Z,6.50
2022-11-26T03:31:15.017Z,6.50
2022-11-26T03:33:42.536Z,6.40
2022-11-26T03:36:09.964Z,6.40
2022-11-26T03:38:37.381Z,6.40
2022-11-26T03:41:04.783Z,6.40
2022-11-26T03:43:33.844Z,6.40
2022-11-26T03:46:01.994Z,6.40
2022-11-26T03:48:29.623Z,6.30
2022-11-26T03:50:57.194Z,6.30
2022-11-26T03:53:24.599Z,6.30
2022-11-26T03:55:52.005Z,6.30
2022-11-26T03:58:19.521Z,6.30
2022-11-26T04:00:46.860Z,6.20
2022-11-26T04:03:14.317Z,6.20
2022-11-26T04:05:41.975Z,6.20
2022-11-26T04:08:09.371Z,6.20
2022-11-26T04:10:36.750Z,6.20
2022-11-26T04:13:04.228Z,6.20
2022-11-26T04:15:31.802Z,6.20
2022-11-26T04:17:59.179Z,6.20
2022-11-26T04:20:26.490Z,6.20
2022-11-26T04:22:53.851Z,6.20
2022-11-26T04:25:21.467Z,6.20
2022-11-26T04:27:51.418Z,6.10
2022-11-26T04:30:18.841Z,6.10
2022-11-26T04:32:46.237Z,6.10
2022-11-26T04:35:13.611Z,6.00
2022-11-26T04:37:41.208Z,6.00
2022-11-26T04:40:09.054Z,6.00
2022-11-26T04:42:36.488Z,6.00
2022-11-26T04:45:04.662Z,6.00
2022-11-26T04:47:32.046Z,6.00
2022-11-26T04:49:59.436Z,6.00
2022-11-26T04:52:26.873Z,6.00
2022-11-26T04:54:54.221Z,6.00
2022-11-26T04:57:21.590Z,6.10
2022-11-26T04:59:48.932Z,6.10
2022-11-26T05:02:16.367Z,6.20
2022-11-26T05:04:43.842Z,6.30
2022-11-26T05:07:11.273Z,6.30
2022-11-26T05:09:38.644Z,6.30
2022-11-26T05:12:06.150Z,6.30
2022-11-26T05:14:33.514Z,6.30
2022-11-26T05:17:00.915Z,6.30
2022-11-26T05:19:28.331Z,6.40
2022-11-26T05:21:55.694Z,6.40
2022-11-26T05:24:23.031Z,6.40
2022-11-26T05:26:56.442Z,6.40
2022-11-26T05:29:24.787Z,6.40
2022-11-26T05:31:52.677Z,6.50
2022-11-26T05:34:21.100Z,6.60
2022-11-26T05:36:48.445Z,6.60
2022-11-26T05:39:16.562Z,6.70
2022-11-26T05:41:44.118Z,6.60
2022-11-26T05:44:11.479Z,6.60
2022-11-26T05:46:40.588Z,6.50
2022-11-26T05:49:08.437Z,6.50
2022-11-26T05:51:36.076Z,6.40
2022-11-26T05:54:03.639Z,6.40
2022-11-26T05:56:31.060Z,6.40
2022-11-26T05:58:58.631Z,6.40
2022-11-26T06:01:26.078Z,6.40
2022-11-26T06:03:53.581Z,6.40
2022-11-26T06:06:21.194Z,6.40
2022-11-26T06:08:48.706Z,6.40
2022-11-26T06:11:16.133Z,6.40
2022-11-26T06:13:43.545Z,6.30
2022-11-26T06:16:10.950Z,6.30
2022-11-26T06:18:38.830Z,6.30
2022-11-26T06:21:06.622Z,6.30
2022-11-26T06:23:34.487Z,6.20
2022-11-26T06:26:01.804Z,6.20
2022-11-26T06:28:29.158Z,6.20
2022-11-26T06:30:56.590Z,6.20
2022-11-26T06:33:23.957Z,6.20
2022-11-26T06:35:51.346Z,6.20
2022-11-26T06:38:18.723Z,6.20
2022-11-26T06:40:46.088Z,6.10
2022-11-26T06:43:13.446Z,6.10
2022-11-26T06:45:40.818Z,6.10
2022-11-26T06:48:08.241Z,6.10
2022-11-26T06:50:35.631Z,6.10
2022-11-26T06:53:03.216Z,6.10
2022-11-26T06:55:31.084Z,6.10
2022-11-26T06:57:58.475Z,6.20
2022-11-26T07:00:26.158Z,6.20
2022-11-26T07:02:53.614Z,6.20
2022-11-26T07:05:21.143Z,6.20
2022-11-26T07:07:48.724Z,6.20
2022-11-26T07:10:16.250Z,6.20
2022-11-26T07:12:43.607Z,6.30
2022-11-26T07:15:11.252Z,6.20
2022-11-26T07:17:38.675Z,6.30
2022-11-26T07:20:06.535Z,6.30
2022-11-26T07:22:34.685Z,6.30
2022-11-26T07:25:02.063Z,6.30
2022-11-26T07:27:29.397Z,6.30
2022-11-26T07:29:56.721Z,6.30
2022-11-26T07:32:24.061Z,6.30
2022-11-26T07:34:51.430Z,6.30
2022-11-26T07:37:18.939Z,6.30
2022-11-26T07:39:47.064Z,6.20
2022-11-26T07:42:14.704Z,6.20
2022-11-26T07:44:42.157Z,6.20
2022-11-26T07:47:09.574Z,6.20
2022-11-26T07:49:37.259Z,6.20
2022-11-26T07:52:04.629Z,6.20
2022-11-26T07:54:32.165Z,6.20
2022-11-26T07:56:59.541Z,6.20
2022-11-26T07:59:26.911Z,6.30
2022-11-26T08:01:54.316Z,6.30
2022-11-26T08:04:21.734Z,6.30
2022-11-26T08:06:49.317Z,6.30
2022-11-26T08:09:16.773Z,6.40
2022-11-26T08:11:44.149Z,6.40
2022-11-26T08:14:12.220Z,6.40
2022-11-26T08:16:40.164Z,6.40
2022-11-26T08:19:10.352Z,6.50
2022-11-26T08:21:38.471Z,6.50
2022-11-26T08:24:07.062Z,6.50
2022-11-26T08:26:42.405Z,6.60
2022-11-26T08:29:11.887Z,6.60
2022-11-26T08:31:45.539Z,6.70
2022-11-26T08:34:15.109Z,6.70
2022-11-26T08:36:42.535Z,6.70
2022-11-26T08:39:19.057Z,6.80
2022-11-26T08:41:52.064Z,6.80
2022-11-26T08:44:20.516Z,6.80
2022-11-26T08:46:48.075Z,6.80
2022-11-26T08:49:16.990Z,6.90
2022-11-26T08:51:44.444Z,6.90
2022-11-26T08:54:13.782Z,6.90
2022-11-26T08:56:41.264Z,6.90
2022-11-26T08:59:08.670Z,7.00
2022-11-26T09:01:36.126Z,7.00
2022-11-26T09:04:04.288Z,7.10
2022-11-26T09:06:32.925Z,7.20
2022-11-26T09:09:13.579Z,7.30
2022-11-26T09:11:47.426Z,7.30
2022-11-26T09:14:15.887Z,7.40
2022-11-26T09:16:43.528Z,7.50
2022-11-26T09:19:11.511Z,7.60
2022-11-26T09:21:39.060Z,7.70
2022-11-26T09:24:07.299Z,7.80
2022-11-26T09:26:35.143Z,7.80
2022-11-26T09:29:03.032Z,7.90
2022-11-26T09:31:30.650Z,8.00
2022-11-26T09:33:59.440Z,8.00
2022-11-26T09:36:27.277Z,8.10
2022-11-26T09:38:55.558Z,8.20
2022-11-26T09:41:22.902Z,8.30
2022-11-26T09:43:57.685Z,8.30
2022-11-26T09:47:11.070Z,8.40
2022-11-26T09:49:48.099Z,8.50
2022-11-26T09:52:18.367Z,8.60
2022-11-26T09:54:47.018Z,8.70
2022-11-26T09:57:25.726Z,8.80
2022-11-26T09:59:54.083Z,8.80
2022-11-26T10:02:21.826Z,8.90
2022-11-26T10:04:49.319Z,8.90
2022-11-26T10:07:26.175Z,9.00
2022-11-26T10:10:11.978Z,9.10
2022-11-26T10:13:17.261Z,9.10
2022-11-26T10:15:51.631Z,9.30
2022-11-26T10:18:19.015Z,9.30
2022-11-26T10:20:52.551Z,9.30
2022-11-26T10:23:29.384Z,9.30
2022-11-26T10:26:04.784Z,9.40
2022-11-26T10:28:52.503Z,9.40
2022-11-26T10:31:24.466Z,9.50
2022-11-26T10:34:04.005Z,9.60
2022-11-26T10:36:36.588Z,9.60
2022-11-26T10:39:04.378Z,9.50
2022-11-26T10:41:35.220Z,9.60
2022-11-26T10:44:21.556Z,9.60
2022-11-26T10:46:48.990Z,9.70
2022-11-26T10:49:21.529Z,9.70
2022-11-26T10:51:49.767Z,9.70
2022-11-26T10:54:41.761Z,9.80
2022-11-26T10:57:09.379Z,9.80
2022-11-26T10:59:46.059Z,9.80
2022-11-26T11:02:25.068Z,9.80
2022-11-26T11:04:57.845Z,9.90
2022-11-26T11:07:30.496Z,9.90
2022-11-26T11:10:06.125Z,10.00
2022-11-26T11:12:33.761Z,10.00
2022-11-26T11:15:21.794Z,10.10
2022-11-26T11:17:58.471Z,10.10
2022-11-26T11:20:29.103Z,10.10
2022-11-26T11:23:04.395Z,10.10
2022-11-26T11:25:33.626Z,10.20
2022-11-26T11:28:06.479Z,10.20
2022-11-26T11:30:37.598Z,10.20
2022-11-26T11:33:17.251Z,10.30
2022-11-26T11:35:44.705Z,10.30
2022-11-26T11:38:22.253Z,10.30
2022-11-26T11:40:49.832Z,10.30
2022-11-26T11:43:18.127Z,10.30
2022-11-26T11:46:04.774Z,10.30
2022-11-26T11:48:32.339Z,10.30
2022-11-26T11:51:18.118Z,10.30
2022-11-26T11:53:53.424Z,10.30
2022-11-26T11:56:24.830Z,10.30
2022-11-26T11:59:15.615Z,10.30
2022-11-26T12:01:59.062Z,10.30
2022-11-26T12:04:55.721Z,10.30
2022-11-26T12:07:23.347Z,10.30
2022-11-26T12:10:12.558Z,10.30
2022-11-26T12:12:48.025Z,10.30
2022-11-26T12:15:48.410Z,10.30
2022-11-26T12:18:42.554Z,10.30
2022-11-26T12:21:14.526Z,10.30
2022-11-26T12:24:05.117Z,10.40
2022-11-26T12:26:35.788Z,10.40
2022-11-26T12:32:17.378Z,10.40
2022-11-26T12:34:47.696Z,10.50
2022-11-26T12:37:19.586Z,10.50
2022-11-26T12:39:56.285Z,10.50
2022-11-26T12:42:30.643Z,10.60
2022-11-26T12:45:02.800Z,10.60
2022-11-26T12:47:37.098Z,10.60
2022-11-26T12:50:07.565Z,10.60
2022-11-26T12:52:38.188Z,10.60
2022-11-26T12:55:11.844Z,10.60
2022-11-26T12:57:53.818Z,10.70
2022-11-26T13:00:26.193Z,10.70
2022-11-26T13:03:00.358Z,10.70
2022-11-26T13:05:32.989Z,10.80
2022-11-26T13:08:04.979Z,10.80
2022-11-26T13:10:41.754Z,10.80
2022-11-26T13:13:17.602Z,10.80
2022-11-26T13:16:10.749Z,10.80
2022-11-26T13:18:42.190Z,10.80
2022-11-26T13:21:18.749Z,10.80
2022-11-26T13:24:18.641Z,10.80
2022-11-26T13:26:52.656Z,10.80
2022-11-26T13:29:50.656Z,10.80
2022-11-26T13:32:36.911Z,10.80
2022-11-26T13:35:16.987Z,10.80
2022-11-26T13:37:53.499Z,10.90
2022-11-26T13:40:39.804Z,10.80
2022-11-26T13:43:07.239Z,10.80
2022-11-26T13:45:53.947Z,10.90
2022-11-26T13:48:30.754Z,10.90
2022-11-26T13:51:07.183Z,11.00
2022-11-26T13:53:43.658Z,11.00
2022-11-26T13:56:12.077Z,11.00
2022-11-26T13:58:48.885Z,11.00
2022-11-26T14:01:26.518Z,11.00
2022-11-26T14:03:54.622Z,11.00
2022-11-26T14:06:22.325Z,11.00
2022-11-26T14:08:50.805Z,11.10
2022-11-26T14:11:57.482Z,11.10
2022-11-26T14:14:24.900Z,11.00
2022-11-26T14:17:01.125Z,11.10
2022-11-26T14:19:35.596Z,11.10
2022-11-26T14:22:03.853Z,11.10
2022-11-26T14:24:49.844Z,11.10
2022-11-26T14:27:18.456Z,11.10
2022-11-26T14:29:55.164Z,11.10
2022-11-26T14:32:23.458Z,11.00
2022-11-26T14:34:52.241Z,11.00
2022-11-26T14:37:20.855Z,11.00
2022-11-26T14:40:01.571Z,11.00
2022-11-26T14:42:29.426Z,11.00
2022-11-26T14:45:02.483Z,11.00
2022-11-26T14:47:31.177Z,10.90
2022-11-26T14:50:04.367Z,11.00
2022-11-26T14:52:36.116Z,11.00
2022-11-26T14:55:07.020Z,11.00
2022-11-26T14:57:42.431Z,11.00
2022-11-26T15:00:16.061Z,10.90
2022-11-26T15:02:48.079Z,11.00
2022-11-26T15:05:18.054Z,11.00
2022-11-26T15:07:45.988Z,10.90
2022-11-26T15:10:15.777Z,11.00
2022-11-26T15:12:44.202Z,10.90
2022-11-26T15:15:19.939Z,11.00
2022-11-26T15:17:50.225Z,10.90
2022-11-26T15:20:17.926Z,10.90
2022-11-26T15:23:14.651Z,10.90
2022-11-26T15:25:49.569Z,10.90
2022-11-26T15:28:18.908Z,10.90
2022-11-26T15:31:02.699Z,10.90
2022-11-26T15:33:35.167Z,10.90
2022-11-26T15:36:02.828Z,10.90
2022-11-26T15:38:31.782Z,10.90
2022-11-26T15:40:59.137Z,10.90
2022-11-26T15:43:43.467Z,10.90
2022-11-26T15:46:10.913Z,10.90
2022-11-26T15:48:53.983Z,11.00
2022-11-26T15:51:40.923Z,10.90
2022-11-26T15:54:56.514Z,10.90
2022-11-26T15:57:24.157Z,10.90
2022-11-26T16:03:35.750Z,10.90
2022-11-26T16:06:06.662Z,10.90
2022-11-26T16:08:34.573Z,10.90
2022-11-26T16:11:05.058Z,10.90
2022-11-26T16:13:33.341Z,10.90
2022-11-26T16:16:07.065Z,10.90
2022-11-26T16:18:36.690Z,10.90
2022-11-26T16:21:09.527Z,10.90
2022-11-26T16:23:37.123Z,10.90
2022-11-26T16:26:10.729Z,10.90
2022-11-26T16:28:38.199Z,10.90
2022-11-26T16:31:06.582Z,10.90
2022-11-26T16:33:33.983Z,10.90
2022-11-26T16:36:01.512Z,11.00
2022-11-26T16:38:29.130Z,11.00
2022-11-26T16:40:56.492Z,11.00
2022-11-26T16:43:27.272Z,11.00
2022-11-26T16:45:55.375Z,11.00
2022-11-26T16:48:26.787Z,10.90
2022-11-26T16:50:57.450Z,11.00
2022-11-26T16:53:24.884Z,10.90
2022-11-26T16:55:52.570Z,10.90
2022-11-26T16:58:38.165Z,10.90
2022-11-26T17:01:05.601Z,10.80
2022-11-26T17:03:33.482Z,10.80
2022-11-26T17:06:02.322Z,10.80
2022-11-26T17:08:30.439Z,10.70
2022-11-26T17:10:58.019Z,10.70
2022-11-26T17:13:25.490Z,10.60
2022-11-26T17:15:52.928Z,10.60
2022-11-26T17:18:21.912Z,10.60
2022-11-26T17:20:50.125Z,10.70
2022-11-26T17:23:17.746Z,10.60
2022-11-26T17:25:45.865Z,10.70
2022-11-26T17:28:13.657Z,10.70
2022-11-26T17:30:42.047Z,10.70
2022-11-26T17:33:09.931Z,10.70
2022-11-26T17:35:37.679Z,10.80
2022-11-26T17:38:11.943Z,10.80
2022-11-26T17:40:39.352Z,10.80
2022-11-26T17:43:06.728Z,10.80
2022-11-26T17:45:34.181Z,10.80
2022-11-26T17:48:01.718Z,10.80
2022-11-26T17:50:30.133Z,10.80
2022-11-26T17:52:57.717Z,10.80
2022-11-26T17:55:26.235Z,10.80
2022-11-26T17:57:55.365Z,10.80
2022-11-26T18:00:28.369Z,10.80
2022-11-26T18:02:56.305Z,10.80
2022-11-26T18:05:24.199Z,10.80
2022-11-26T18:07:52.052Z,10.80
2022-11-26T18:10:20.419Z,10.80
2022-11-26T18:12:48.945Z,10.80
2022-11-26T18:15:20.712Z,10.80
2022-11-26T18:17:50.887Z,10.70
2022-11-26T18:20:19.353Z,10.80
2022-11-26T18:22:49.610Z,10.70
2022-11-26T18:25:17.390Z,10.70
2022-11-26T18:27:44.950Z,10.70
2022-11-26T18:30:12.645Z,10.70
2022-11-26T18:32:40.482Z,10.70
2022-11-26T18:35:08.560Z,10.70
2022-11-26T18:37:38.559Z,10.70
2022-11-26T18:40:06.799Z,10.70
2022-11-26T18:42:38.122Z,10.70
2022-11-26T18:45:06.815Z,10.70
2022-11-26T18:47:34.258Z,10.60
2022-11-26T18:50:01.686Z,10.60
2022-11-26T18:52:29.086Z,10.60
2022-11-26T18:54:56.461Z,10.60
2022-11-26T18:57:23.854Z,10.60
2022-11-26T18:59:51.599Z,10.60
2022-11-26T19:02:19.083Z,10.60
2022-11-26T19:04:46.453Z,10.60
2022-11-26T19:07:14.267Z,10.50
2022-11-26T19:09:42.455Z,10.60
2022-11-26T19:12:12.065Z,10.50
2022-11-26T19:14:39.497Z,10.60
2022-11-26T19:17:07.178Z,10.60
2022-11-26T19:19:34.554Z,10.60
2022-11-26T19:22:02.234Z,10.60
2022-11-26T19:24:30.267Z,10.60
2022-11-26T19:26:57.931Z,10.60
2022-11-26T19:29:25.339Z,10.60
2022-11-26T19:31:53.563Z,10.60
2022-11-26T19:34:20.966Z,10.60
2022-11-26T19:36:49.173Z,10.60
2022-11-26T19:39:17.195Z,10.60
2022-11-26T19:41:44.713Z,10.50
2022-11-26T19:44:12.069Z,10.50
2022-11-26T19:46:41.132Z,10.40
2022-11-26T19:49:12.480Z,10.40
2022-11-26T19:51:42.124Z,10.30
2022-11-26T19:54:10.329Z,10.30
2022-11-26T19:56:37.882Z,10.20
2022-11-26T19:59:06.605Z,10.20
2022-11-26T20:01:34.486Z,10.20
2022-11-26T20:04:03.311Z,10.20
2022-11-26T20:06:31.350Z,10.20
2022-11-26T20:08:59.315Z,10.10
2022-11-26T20:11:27.852Z,10.10
2022-11-26T20:13:56.143Z,10.10
2022-11-26T20:16:25.073Z,10.10
2022-11-26T20:18:53.232Z,10.20
2022-11-26T20:21:22.137Z,10.10
2022-11-26T20:23:50.582Z,10.20
2022-11-26T20:26:19.596Z,10.20
2022-11-26T20:28:47.633Z,10.20
2022-11-26T20:31:20.493Z,10.20
2022-11-26T20:33:51.286Z,10.20
2022-11-26T20:36:20.863Z,10.20
2022-11-26T20:38:55.543Z,10.20
2022-11-26T20:41:23.477Z,10.30
2022-11-26T20:43:56.585Z,10.30
2022-11-26T20:46:26.055Z,10.30
2022-11-26T20:48:53.560Z,10.40
2022-11-26T20:51:22.031Z,10.40
2022-11-26T20:53:50.793Z,10.50
2022-11-26T20:56:19.185Z,10.40
2022-11-26T20:58:47.031Z,10.50
2022-11-26T21:01:16.115Z,10.50
2022-11-26T21:03:43.931Z,10.60
2022-11-26T21:06:12.912Z,10.60
2022-11-26T21:08:40.840Z,10.60
2022-11-26T21:11:08.678Z,10.60
2022-11-26T21:13:37.105Z,10.60
2022-11-26T21:16:06.230Z,10.70
2022-11-26T21:18:33.843Z,10.70
2022-11-26T21:21:07.465Z,10.80
2022-11-26T21:23:36.709Z,10.80
2022-11-26T21:26:08.059Z,10.80
2022-11-26T21:28:35.614Z,10.80
2022-11-26T21:31:17.228Z,10.80
2022-11-26T21:33:45.028Z,10.80
2022-11-26T21:36:13.900Z,10.90
2022-11-26T21:38:41.779Z,10.90
2022-11-26T21:41:13.042Z,10.90
2022-11-26T21:43:40.943Z,10.90
2022-11-26T21:46:09.796Z,11.00
2022-11-26T21:48:37.638Z,10.90
2022-11-26T21:51:06.148Z,11.00
2022-11-26T21:53:33.810Z,10.90
2022-11-26T21:56:20.583Z,10.90
2022-11-26T21:58:48.539Z,10.90
2022-11-26T22:01:24.590Z,10.80
2022-11-26T22:03:53.497Z,10.80
2022-11-26T22:06:22.764Z,10.80
2022-11-26T22:08:53.587Z,10.70
2022-11-26T22:11:23.065Z,10.70
2022-11-26T22:13:51.042Z,10.70
2022-11-26T22:16:20.188Z,10.70
2022-11-26T22:18:47.933Z,10.70
2022-11-26T22:21:19.826Z,10.60
2022-11-26T22:23:47.395Z,10.60
2022-11-26T22:26:14.858Z,10.60
2022-11-26T22:28:42.590Z,10.50
2022-11-26T22:31:13.301Z,10.60
2022-11-26T22:33:40.996Z,10.60
2022-11-26T22:36:08.554Z,10.60
2022-11-26T22:38:36.436Z,10.60
2022-11-26T22:41:04.419Z,10.60
2022-11-26T22:43:32.123Z,10.60
2022-11-26T22:46:03.055Z,10.60
2022-11-26T22:48:30.506Z,10.60
2022-11-26T22:50:57.983Z,10.60
2022-11-26T22:53:25.346Z,10.60
2022-11-26T22:55:57.192Z,10.60
2022-11-26T22:58:25.825Z,10.60
2022-11-26T23:00:53.295Z,10.60
2022-11-26T23:03:21.091Z,10.60
2022-11-26T23:05:48.847Z,10.60
2022-11-26T23:08:16.577Z,10.60
2022-11-26T23:10:44.278Z,10.60
2022-11-26T23:13:12.943Z,10.60
2022-11-26T23:15:45.053Z,10.60
2022-11-26T23:18:13.898Z,10.60
2022-11-26T23:20:41.934Z,10.60
2022-11-26T23:23:09.568Z,10.60
2022-11-26T23:25:37.668Z,10.70
2022-11-26T23:28:06.597Z,10.70
2022-11-26T23:30:34.964Z,10.70
2022-11-26T23:33:02.267Z,10.70
2022-11-26T23:35:29.712Z,10.70
2022-11-26T23:37:57.143Z,10.70
2022-11-26T23:40:24.494Z,10.70
2022-11-26T23:42:51.842Z,10.70
2022-11-26T23:45:19.341Z,10.70
2022-11-26T23:47:46.774Z,10.70
2022-11-26T23:50:14.589Z,10.70
2022-11-26T23:52:41.938Z,10.80
2022-11-26T23:55:09.650Z,10.70
2022-11-26T23:57:37.023Z,10.70
